LTAC/ESB METAR and TAF weather

Enter ICAO airport designator
Station Type Date Time Source
LTAC METAR 2023/10/01 02:20 UTC NOAA

LTAC 010220Z 34002KT 9999 SCT040 BKN100 13/12 Q1014 NOSIG


Station Type Date Time Source
LTAC Decoded METAR 2023/10/01 02:20 UTC NOAA

Ankara / Esenboga, Turkey (LTAC) 40-07N 032-59E 949M
Sep 30, 2023 - 10:20 PM EDT / 2023.10.01 0220 UTC
Wind: from the NNW (340 degrees) at 2 MPH (2 KT):0
Visibility: greater than 7 mile(s):0
Sky conditions: mostly cloudy
Temperature: 55 F (13 C)
Dew Point: 53 F (12 C)
Relative Humidity: 93%
Pressure (altimeter): 29.94 in. Hg (1014 hPa)
ob: LTAC 010220Z 34002KT 9999 SCT040 BKN100 13/12 Q1014 NOSIG
cycle: 2

Station Type Date Time Source
LTAC TAF 2023/09/30 18:03 UTC NOAA

TAF TAF LTAC 301640Z 3018/0118 VRB02KT 9999 SCT040 BKN100
TEMPO 3018/3020 -SHRA FEW025CB BKN030
BECMG 3020/3023 -SHRA BKN030 BKN080
TEMPO 0108/0112 03015G25KT -TSRA FEW025CB BKN030 BKN080

Example: see airport list